createdAt,value
2019-03-21T00:02:12.407Z,40.70
2019-03-21T00:04:42.436Z,40.90
2019-03-21T00:07:10.857Z,40.90
2019-03-21T00:09:39.311Z,40.80
2019-03-21T00:12:10.266Z,40.80
2019-03-21T00:14:50.453Z,41.00
2019-03-21T00:17:24.468Z,41.00
2019-03-21T00:19:52.905Z,40.60
2019-03-21T00:22:21.333Z,40.50
2019-03-21T00:24:50.013Z,40.50
2019-03-21T00:27:18.450Z,40.90
2019-03-21T00:29:46.846Z,41.40
2019-03-21T00:32:15.350Z,41.80
2019-03-21T00:34:43.760Z,41.80
2019-03-21T00:37:12.222Z,41.80
2019-03-21T00:39:40.653Z,41.50
2019-03-21T00:42:09.949Z,41.50
2019-03-21T00:44:38.374Z,41.30
2019-03-21T00:47:06.786Z,41.40
2019-03-21T00:49:35.570Z,41.90
2019-03-21T00:52:04.075Z,42.20
2019-03-21T00:54:32.505Z,42.30
2019-03-21T00:57:00.930Z,42.40
2019-03-21T00:59:29.422Z,42.40
2019-03-21T01:01:57.864Z,42.50
2019-03-21T01:04:27.745Z,41.90
2019-03-21T01:06:56.153Z,41.90
2019-03-21T01:09:24.583Z,41.60
2019-03-21T01:11:53.018Z,41.70
2019-03-21T01:14:29.354Z,41.50
2019-03-21T01:16:51.562Z,41.60
2019-03-21T01:19:20.028Z,42.10
2019-03-21T01:21:48.426Z,41.70
2019-03-21T01:24:16.899Z,42.10
2019-03-21T01:26:45.348Z,42.10
2019-03-21T01:29:14.283Z,42.20
2019-03-21T01:31:42.689Z,42.40
2019-03-21T01:34:12.265Z,42.80
2019-03-21T01:36:40.673Z,42.70
2019-03-21T01:39:09.163Z,42.90
2019-03-21T01:41:37.578Z,43.40
2019-03-21T01:44:06.082Z,43.40
2019-03-21T01:46:34.485Z,44.30
2019-03-21T01:49:03.395Z,43.80
2019-03-21T01:51:31.865Z,44.00
2019-03-21T01:54:00.284Z,43.60
2019-03-21T01:56:30.641Z,43.60
2019-03-21T01:58:59.069Z,43.40
2019-03-21T02:01:27.625Z,43.60
2019-03-21T02:03:56.089Z,43.30
2019-03-21T02:06:24.521Z,43.80
2019-03-21T02:08:53.153Z,44.30
2019-03-21T02:11:21.867Z,44.40
2019-03-21T02:13:50.294Z,44.70
2019-03-21T02:16:18.718Z,45.00
2019-03-21T02:18:47.205Z,45.40
2019-03-21T02:21:15.735Z,45.40
2019-03-21T02:23:44.580Z,45.50
2019-03-21T02:26:13.007Z,45.60
2019-03-21T02:28:41.541Z,45.50
2019-03-21T02:31:10.347Z,45.10
2019-03-21T02:33:44.199Z,45.20
2019-03-21T02:36:13.994Z,44.60
2019-03-21T02:38:42.401Z,44.80
2019-03-21T02:41:17.463Z,45.20
2019-03-21T02:43:45.949Z,45.10
2019-03-21T02:46:14.378Z,45.00
2019-03-21T02:48:42.780Z,45.00
2019-03-21T02:51:11.182Z,45.00
2019-03-21T02:53:39.615Z,45.30
2019-03-21T02:56:11.310Z,44.90
2019-03-21T02:58:39.726Z,45.50
2019-03-21T03:01:08.147Z,45.00
2019-03-21T03:03:36.811Z,45.40
2019-03-21T03:06:05.307Z,45.70
2019-03-21T03:08:33.699Z,45.70
2019-03-21T03:11:10.859Z,45.80
2019-03-21T03:13:38.961Z,45.90
2019-03-21T03:16:07.464Z,46.00
2019-03-21T03:18:35.879Z,46.00
2019-03-21T03:21:04.358Z,45.60
2019-03-21T03:23:32.766Z,45.60
2019-03-21T03:26:01.187Z,45.30
2019-03-21T03:28:38.374Z,45.40
2019-03-21T03:31:06.794Z,45.00
2019-03-21T03:33:35.350Z,44.70
2019-03-21T03:36:03.808Z,44.30
2019-03-21T03:38:32.287Z,44.00
2019-03-21T03:41:02.337Z,44.00
2019-03-21T03:43:30.760Z,44.30
2019-03-21T03:45:59.189Z,44.20
2019-03-21T03:48:28.544Z,44.20
2019-03-21T03:50:56.970Z,44.50
2019-03-21T03:53:25.742Z,44.70
2019-03-21T03:55:54.215Z,45.10
2019-03-21T03:58:25.073Z,45.00
2019-03-21T04:00:53.590Z,44.60
2019-03-21T04:03:22.203Z,44.60
2019-03-21T04:05:50.602Z,44.20
2019-03-21T04:08:19.013Z,44.00
2019-03-21T04:10:53.241Z,44.20
2019-03-21T04:13:21.687Z,44.40
2019-03-21T04:15:53.235Z,44.80
2019-03-21T04:18:22.909Z,44.60
2019-03-21T04:20:56.947Z,44.10
2019-03-21T04:23:25.377Z,44.10
2019-03-21T04:26:05.793Z,44.10
2019-03-21T04:28:34.621Z,44.10
2019-03-21T04:31:03.041Z,44.10
2019-03-21T04:33:31.514Z,44.40
2019-03-21T04:36:00.033Z,44.60
2019-03-21T04:38:28.691Z,44.90
2019-03-21T04:40:57.121Z,44.70
2019-03-21T04:43:25.689Z,45.00
2019-03-21T04:46:02.837Z,45.00
2019-03-21T04:48:24.256Z,45.20
2019-03-21T04:50:52.721Z,45.60
2019-03-21T04:53:21.133Z,46.00
2019-03-21T04:55:49.529Z,45.50
2019-03-21T04:58:17.954Z,45.30
2019-03-21T05:00:57.142Z,45.30
2019-03-21T05:03:28.454Z,45.50
2019-03-21T05:05:56.938Z,45.10
2019-03-21T05:08:25.367Z,45.20
2019-03-21T05:10:53.850Z,45.90
2019-03-21T05:13:22.275Z,46.30
2019-03-21T05:15:52.019Z,46.70
2019-03-21T05:18:39.117Z,47.10
2019-03-21T05:21:14.266Z,47.40
2019-03-21T05:23:42.719Z,47.50
2019-03-21T05:26:11.102Z,47.80
2019-03-21T05:28:39.541Z,47.50
2019-03-21T05:31:11.155Z,47.10
2019-03-21T05:33:39.604Z,46.90
2019-03-21T05:36:08.143Z,46.80
2019-03-21T05:38:36.578Z,47.00
2019-03-21T05:41:05.311Z,46.50
2019-03-21T05:43:37.032Z,46.70
2019-03-21T05:46:05.464Z,46.30
2019-03-21T05:48:33.881Z,46.40
2019-03-21T05:51:02.354Z,46.00
2019-03-21T05:53:30.873Z,45.80
2019-03-21T05:55:59.666Z,46.20
2019-03-21T05:58:28.102Z,46.20
2019-03-21T06:01:05.966Z,45.70
2019-03-21T06:03:48.628Z,46.10
2019-03-21T06:06:28.769Z,46.20
2019-03-21T06:08:57.195Z,46.40
2019-03-21T06:11:25.636Z,45.80
2019-03-21T06:13:54.863Z,47.20
2019-03-21T06:16:37.035Z,46.20
2019-03-21T06:19:23.685Z,46.20
2019-03-21T06:22:07.532Z,45.60
2019-03-21T06:24:44.748Z,45.60
2019-03-21T06:27:29.907Z,45.80
2019-03-21T06:29:58.907Z,45.90
2019-03-21T06:32:27.938Z,45.90
2019-03-21T06:34:57.406Z,46.00
2019-03-21T06:37:28.470Z,45.90
2019-03-21T06:39:56.802Z,45.70
2019-03-21T06:42:25.466Z,45.20
2019-03-21T06:44:54.027Z,45.20
2019-03-21T06:47:22.441Z,45.40
2019-03-21T06:49:50.871Z,44.80
2019-03-21T06:52:19.290Z,44.30
2019-03-21T06:54:47.734Z,43.80
2019-03-21T06:57:16.170Z,42.60
2019-03-21T06:59:44.585Z,42.20
2019-03-21T07:02:12.998Z,41.80
2019-03-21T07:04:41.444Z,40.50
2019-03-21T07:07:09.852Z,40.00
2019-03-21T07:09:38.314Z,39.30
2019-03-21T07:12:06.781Z,38.50
2019-03-21T07:14:35.214Z,37.50
2019-03-21T07:17:03.653Z,36.30
2019-03-21T07:19:32.174Z,36.20
2019-03-21T07:22:00.570Z,36.50
2019-03-21T07:24:29.013Z,37.00
2019-03-21T07:26:57.409Z,36.30
2019-03-21T07:29:25.837Z,35.30
2019-03-21T07:31:54.315Z,33.80
2019-03-21T07:34:22.765Z,33.20
2019-03-21T07:36:51.234Z,32.50
2019-03-21T07:39:20.070Z,32.50
2019-03-21T07:41:48.542Z,32.00
2019-03-21T07:44:17.049Z,31.50
2019-03-21T07:46:45.483Z,32.00
2019-03-21T07:49:13.898Z,31.40
2019-03-21T07:51:44.974Z,30.00
2019-03-21T07:54:12.894Z,30.30
2019-03-21T07:56:41.328Z,30.60
2019-03-21T07:59:09.759Z,29.20
2019-03-21T08:01:38.264Z,29.80
2019-03-21T08:04:06.687Z,28.80
2019-03-21T08:06:35.148Z,28.70
2019-03-21T08:09:05.143Z,28.10
2019-03-21T08:11:33.625Z,27.80
2019-03-21T08:14:02.054Z,27.50
2019-03-21T08:16:30.583Z,26.70
2019-03-21T08:18:59.109Z,27.30
2019-03-21T08:21:27.878Z,26.90
2019-03-21T08:23:56.281Z,26.60
2019-03-21T08:26:24.704Z,26.50
2019-03-21T08:28:53.150Z,25.60
2019-03-21T08:31:21.587Z,25.10
2019-03-21T08:33:50.031Z,24.90
2019-03-21T08:36:18.697Z,24.90
2019-03-21T08:38:47.174Z,24.80
2019-03-21T08:41:15.626Z,24.40
2019-03-21T08:43:44.068Z,23.20
2019-03-21T08:46:12.562Z,23.60
2019-03-21T08:48:41.045Z,23.90
2019-03-21T08:51:09.581Z,22.50
2019-03-21T08:53:38.004Z,23.80
2019-03-21T08:56:06.577Z,23.60
2019-03-21T08:58:35.074Z,23.00
2019-03-21T09:01:03.550Z,23.20
2019-03-21T09:03:32.016Z,23.20
2019-03-21T09:06:00.434Z,22.80
2019-03-21T09:08:28.837Z,22.70
2019-03-21T09:10:57.265Z,22.80
2019-03-21T09:13:25.705Z,22.50
2019-03-21T09:15:54.132Z,22.30
2019-03-21T09:18:22.588Z,22.00
2019-03-21T09:20:51.025Z,22.00
2019-03-21T09:23:19.496Z,22.60
2019-03-21T09:25:47.932Z,22.60
2019-03-21T09:28:16.362Z,22.80
2019-03-21T09:30:44.800Z,21.80
2019-03-21T09:33:13.275Z,22.50
2019-03-21T09:35:42.129Z,22.30
2019-03-21T09:38:10.530Z,22.20
2019-03-21T09:40:38.989Z,22.40
2019-03-21T09:43:07.442Z,22.30
2019-03-21T09:45:35.861Z,22.30
2019-03-21T09:48:04.282Z,22.20
2019-03-21T09:50:32.709Z,21.80
2019-03-21T09:53:01.142Z,21.60
2019-03-21T09:55:29.671Z,22.20
2019-03-21T09:57:58.102Z,21.90
2019-03-21T10:00:34.745Z,21.60
2019-03-21T10:03:03.230Z,22.10
2019-03-21T10:05:31.710Z,21.60
2019-03-21T10:08:00.322Z,21.60
2019-03-21T10:10:32.651Z,22.20
2019-03-21T10:13:01.145Z,21.90
2019-03-21T10:15:29.684Z,22.00
2019-03-21T10:17:58.165Z,21.50
2019-03-21T10:20:26.578Z,21.70
2019-03-21T10:22:55.156Z,21.80
2019-03-21T10:25:26.381Z,21.90
2019-03-21T10:27:53.793Z,20.40
2019-03-21T10:30:39.457Z,21.00
2019-03-21T10:33:09.678Z,20.80
2019-03-21T10:35:38.260Z,20.50
2019-03-21T10:38:07.411Z,20.80
2019-03-21T10:40:36.073Z,20.40
2019-03-21T10:43:05.241Z,20.50
2019-03-21T10:45:33.722Z,21.40
2019-03-21T10:48:02.217Z,20.70
2019-03-21T10:50:32.809Z,20.00
2019-03-21T10:53:01.218Z,19.50
2019-03-21T10:55:29.696Z,19.50
2019-03-21T10:57:58.528Z,20.30
2019-03-21T11:00:27.434Z,20.50
2019-03-21T11:02:56.137Z,19.70
2019-03-21T11:05:24.642Z,19.30
2019-03-21T11:07:53.106Z,19.60
2019-03-21T11:10:21.596Z,18.80
2019-03-21T11:12:50.079Z,18.30
2019-03-21T11:15:18.717Z,18.90
2019-03-21T11:17:47.203Z,19.70
2019-03-21T11:20:24.339Z,19.10
2019-03-21T11:22:52.766Z,17.70
2019-03-21T11:25:21.176Z,18.70
2019-03-21T11:27:49.602Z,18.70
2019-03-21T11:30:21.134Z,18.60
2019-03-21T11:32:49.535Z,19.10
2019-03-21T11:35:17.974Z,18.90
2019-03-21T11:37:46.706Z,19.00
2019-03-21T11:40:16.758Z,19.10
2019-03-21T11:42:45.157Z,19.00
2019-03-21T11:45:15.101Z,18.80
2019-03-21T11:47:43.675Z,19.00
2019-03-21T11:50:12.152Z,20.00
2019-03-21T11:52:41.251Z,20.40
2019-03-21T11:55:10.217Z,20.00
2019-03-21T11:57:38.633Z,20.20
2019-03-21T12:00:08.474Z,20.30
2019-03-21T12:02:36.877Z,20.00
2019-03-21T12:05:06.880Z,20.50
2019-03-21T12:07:35.295Z,20.80
2019-03-21T12:10:05.202Z,20.70
2019-03-21T12:12:33.662Z,20.70
2019-03-21T12:15:02.078Z,21.70
2019-03-21T12:17:30.486Z,21.50
2019-03-21T12:19:58.913Z,21.20
2019-03-21T12:22:30.165Z,21.20
2019-03-21T12:24:57.444Z,21.40
2019-03-21T12:27:25.942Z,21.10
2019-03-21T12:29:54.362Z,21.50
2019-03-21T12:32:22.825Z,21.60
2019-03-21T12:34:51.315Z,21.20
2019-03-21T12:37:19.765Z,21.00
2019-03-21T12:39:48.195Z,21.40
2019-03-21T12:42:16.945Z,21.40
2019-03-21T12:44:45.446Z,21.60
2019-03-21T12:47:14.004Z,21.50
2019-03-21T12:49:42.423Z,20.20
2019-03-21T12:52:11.342Z,20.00
2019-03-21T12:54:39.797Z,20.20
2019-03-21T12:57:08.225Z,20.70
2019-03-21T12:59:36.658Z,20.90
2019-03-21T13:02:05.066Z,19.80
2019-03-21T13:04:33.470Z,19.50
2019-03-21T13:07:01.871Z,19.30
2019-03-21T13:09:30.374Z,18.50
2019-03-21T13:11:58.786Z,18.60
2019-03-21T13:14:27.201Z,19.70
2019-03-21T13:16:55.642Z,19.90
2019-03-21T13:19:24.065Z,19.20
2019-03-21T13:21:52.465Z,19.00
2019-03-21T13:24:20.909Z,18.60
2019-03-21T13:26:49.352Z,18.80
2019-03-21T13:29:17.799Z,18.50
2019-03-21T13:31:46.206Z,18.60
2019-03-21T13:34:14.653Z,18.80
2019-03-21T13:36:43.121Z,18.90
2019-03-21T13:39:11.568Z,18.80
2019-03-21T13:41:39.992Z,19.30
2019-03-21T13:44:08.436Z,18.50
2019-03-21T13:46:36.845Z,18.90
2019-03-21T13:49:06.194Z,17.80
2019-03-21T13:51:34.765Z,17.70
2019-03-21T13:54:03.188Z,18.10
2019-03-21T13:56:38.085Z,17.60
2019-03-21T13:59:02.039Z,18.50
2019-03-21T14:01:30.468Z,18.50
2019-03-21T14:03:58.918Z,18.60
2019-03-21T14:06:28.169Z,17.60
2019-03-21T14:08:56.614Z,17.60
2019-03-21T14:11:25.089Z,17.30
2019-03-21T14:13:53.533Z,17.80
2019-03-21T14:16:22.014Z,18.00
2019-03-21T14:18:50.428Z,17.30
2019-03-21T14:21:18.913Z,17.30
2019-03-21T14:23:47.341Z,18.00
2019-03-21T14:26:15.749Z,18.30
2019-03-21T14:28:44.165Z,18.00
2019-03-21T14:31:12.634Z,16.20
2019-03-21T14:33:41.035Z,16.50
2019-03-21T14:36:09.462Z,17.20
2019-03-21T14:38:37.953Z,16.50
2019-03-21T14:41:06.484Z,16.10
2019-03-21T14:43:34.914Z,15.20
2019-03-21T14:46:03.346Z,16.00
2019-03-21T14:48:31.758Z,15.00
2019-03-21T14:51:00.190Z,16.40
2019-03-21T14:53:29.369Z,16.80
2019-03-21T14:55:57.851Z,15.10
2019-03-21T14:58:26.316Z,15.30
2019-03-21T15:00:54.730Z,14.90
2019-03-21T15:03:23.153Z,14.60
2019-03-21T15:05:51.586Z,15.60
2019-03-21T15:08:19.987Z,16.50
2019-03-21T15:10:48.439Z,17.20
2019-03-21T15:13:16.922Z,17.40
2019-03-21T15:15:45.383Z,16.50
2019-03-21T15:18:13.847Z,16.30
2019-03-21T15:20:42.281Z,15.20
2019-03-21T15:23:10.747Z,15.30
2019-03-21T15:25:39.192Z,15.10
2019-03-21T15:28:07.920Z,14.60
2019-03-21T15:30:36.391Z,14.50
2019-03-21T15:33:04.878Z,15.10
2019-03-21T15:35:33.411Z,15.40
2019-03-21T15:38:01.853Z,16.10
2019-03-21T15:40:30.352Z,15.80
2019-03-21T15:42:58.804Z,16.10
2019-03-21T15:45:27.247Z,16.20
2019-03-21T15:47:55.697Z,15.40
2019-03-21T15:50:29.857Z,14.40
2019-03-21T15:52:59.318Z,14.60
2019-03-21T15:55:27.766Z,14.60
2019-03-21T15:57:56.168Z,14.10
2019-03-21T16:00:40.006Z,14.50
2019-03-21T16:03:09.554Z,15.20
2019-03-21T16:05:38.283Z,15.80
2019-03-21T16:08:08.903Z,16.30
2019-03-21T16:10:37.356Z,16.20
2019-03-21T16:13:05.990Z,16.80
2019-03-21T16:15:34.477Z,16.30
2019-03-21T16:18:02.981Z,16.60
2019-03-21T16:20:31.438Z,16.90
2019-03-21T16:23:00.248Z,16.20
2019-03-21T16:25:28.729Z,16.00
2019-03-21T16:27:57.193Z,15.70
2019-03-21T16:30:25.735Z,15.60
2019-03-21T16:32:54.244Z,16.20
2019-03-21T16:35:22.930Z,15.50
2019-03-21T16:37:51.354Z,16.00
2019-03-21T16:40:19.795Z,15.90
2019-03-21T16:42:48.245Z,15.90
2019-03-21T16:45:17.550Z,16.10
2019-03-21T16:47:46.013Z,16.00
2019-03-21T16:50:15.166Z,15.90
2019-03-21T16:52:43.700Z,16.50
2019-03-21T16:55:13.681Z,16.70
2019-03-21T16:57:42.377Z,17.00
2019-03-21T17:00:18.045Z,17.00
2019-03-21T17:02:47.357Z,17.30
2019-03-21T17:05:15.782Z,17.30
2019-03-21T17:07:44.309Z,17.40
2019-03-21T17:10:14.184Z,17.40
2019-03-21T17:12:44.212Z,17.60
2019-03-21T17:15:13.465Z,17.70
2019-03-21T17:17:41.928Z,17.90
2019-03-21T17:20:11.847Z,17.90
2019-03-21T17:22:40.454Z,18.10
2019-03-21T17:25:10.137Z,18.40
2019-03-21T17:27:38.638Z,18.30
2019-03-21T17:30:17.173Z,18.40
2019-03-21T17:32:45.630Z,18.60
2019-03-21T17:35:14.108Z,18.70
2019-03-21T17:37:42.542Z,18.90
2019-03-21T17:40:13.148Z,18.90
2019-03-21T17:42:41.586Z,19.10
2019-03-21T17:45:15.225Z,19.10
2019-03-21T17:47:43.679Z,19.10
2019-03-21T17:50:14.225Z,19.30
2019-03-21T17:52:42.727Z,19.30
2019-03-21T17:55:11.256Z,19.50
2019-03-21T17:57:39.818Z,19.50
2019-03-21T18:00:17.526Z,19.60
2019-03-21T18:02:46.518Z,20.30
2019-03-21T18:05:15.055Z,19.70
2019-03-21T18:07:43.501Z,19.90
2019-03-21T18:10:26.769Z,20.10
2019-03-21T18:12:55.531Z,20.20
2019-03-21T18:15:24.040Z,20.40
2019-03-21T18:17:52.886Z,20.50
2019-03-21T18:20:21.340Z,20.50
2019-03-21T18:22:49.830Z,20.60
2019-03-21T18:25:18.350Z,20.80
2019-03-21T18:27:46.790Z,20.90
2019-03-21T18:30:15.492Z,20.80
2019-03-21T18:32:44.299Z,20.90
2019-03-21T18:35:13.155Z,21.00
2019-03-21T18:37:41.647Z,21.10
2019-03-21T18:40:11.440Z,21.20
2019-03-21T18:42:39.924Z,21.40
2019-03-21T18:45:11.004Z,21.40
2019-03-21T18:47:39.449Z,21.80
2019-03-21T18:50:13.842Z,21.70
2019-03-21T18:52:42.359Z,21.60
2019-03-21T18:55:11.111Z,22.00
2019-03-21T18:57:39.573Z,22.80
2019-03-21T19:00:13.614Z,22.80
2019-03-21T19:02:42.087Z,22.80
2019-03-21T19:05:10.873Z,22.80
2019-03-21T19:07:39.574Z,23.30
2019-03-21T19:10:11.030Z,23.10
2019-03-21T19:12:39.470Z,23.40
2019-03-21T19:15:10.542Z,22.80
2019-03-21T19:17:38.990Z,23.30
2019-03-21T19:20:15.957Z,23.00
2019-03-21T19:22:44.385Z,22.70
2019-03-21T19:25:18.820Z,22.70
2019-03-21T19:27:43.929Z,22.90
2019-03-21T19:30:14.853Z,23.00
2019-03-21T19:32:43.314Z,23.20
2019-03-21T19:35:12.219Z,23.20
2019-03-21T19:37:40.670Z,23.40
2019-03-21T19:40:11.923Z,23.50
2019-03-21T19:42:40.369Z,23.70
2019-03-21T19:45:11.140Z,23.70
2019-03-21T19:47:39.557Z,23.90
2019-03-21T19:50:16.566Z,24.10
2019-03-21T19:52:45.423Z,23.70
2019-03-21T19:55:14.114Z,23.60
2019-03-21T19:57:42.597Z,23.80
2019-03-21T20:00:23.144Z,24.30
2019-03-21T20:02:51.621Z,24.40
2019-03-21T20:05:20.372Z,24.60
2019-03-21T20:07:48.880Z,24.90
2019-03-21T20:10:19.472Z,25.10
2019-03-21T20:12:48.087Z,25.30
2019-03-21T20:15:20.486Z,25.40
2019-03-21T20:17:48.950Z,25.80
2019-03-21T20:20:18.749Z,25.90
2019-03-21T20:22:47.426Z,26.00
2019-03-21T20:25:16.010Z,27.00
2019-03-21T20:27:44.504Z,27.50
2019-03-21T20:30:23.054Z,28.30
2019-03-21T20:32:51.997Z,28.80
2019-03-21T20:35:20.466Z,29.00
2019-03-21T20:37:49.234Z,29.20
2019-03-21T20:40:19.841Z,29.00
2019-03-21T20:42:48.303Z,29.00
2019-03-21T20:45:18.185Z,29.10
2019-03-21T20:47:46.793Z,29.10
2019-03-21T20:50:15.582Z,29.30
2019-03-21T20:52:44.026Z,29.70
2019-03-21T20:55:12.793Z,29.80
2019-03-21T20:57:41.235Z,29.90
2019-03-21T21:00:21.166Z,30.00
2019-03-21T21:02:50.341Z,30.60
2019-03-21T21:05:19.147Z,30.70
2019-03-21T21:07:47.838Z,31.20
2019-03-21T21:10:16.329Z,32.00
2019-03-21T21:12:44.749Z,32.20
2019-03-21T21:15:15.695Z,32.70
2019-03-21T21:17:44.404Z,33.50
2019-03-21T21:20:17.455Z,33.70
2019-03-21T21:22:45.896Z,34.00
2019-03-21T21:25:14.778Z,34.30
2019-03-21T21:27:49.162Z,34.50
2019-03-21T21:30:16.494Z,34.70
2019-03-21T21:32:44.937Z,34.60
2019-03-21T21:35:13.519Z,34.60
2019-03-21T21:37:41.922Z,34.60
2019-03-21T21:40:11.751Z,34.60
2019-03-21T21:42:40.166Z,34.60
2019-03-21T21:45:10.821Z,35.10
2019-03-21T21:47:39.296Z,35.60
2019-03-21T21:50:13.438Z,35.90
2019-03-21T21:52:42.507Z,36.30
2019-03-21T21:55:11.449Z,36.50
2019-03-21T21:57:40.129Z,36.30
2019-03-21T22:00:19.771Z,36.50
2019-03-21T22:02:48.209Z,36.60
2019-03-21T22:05:16.890Z,37.20
2019-03-21T22:07:45.637Z,37.20
2019-03-21T22:10:14.327Z,37.10
2019-03-21T22:12:42.764Z,37.30
2019-03-21T22:15:15.146Z,37.70
2019-03-21T22:17:43.730Z,38.20
2019-03-21T22:20:14.685Z,38.70
2019-03-21T22:22:43.433Z,38.90
2019-03-21T22:25:12.110Z,39.10
2019-03-21T22:27:40.509Z,38.60
2019-03-21T22:30:19.396Z,38.30
2019-03-21T22:32:47.959Z,38.00
2019-03-21T22:35:16.675Z,38.10
2019-03-21T22:37:45.080Z,38.20
2019-03-21T22:40:15.547Z,38.20
2019-03-21T22:42:44.011Z,38.10
2019-03-21T22:45:17.014Z,37.90
2019-03-21T22:47:45.426Z,37.90
2019-03-21T22:50:17.854Z,38.10
2019-03-21T22:52:46.546Z,37.60
2019-03-21T22:55:15.280Z,37.80
2019-03-21T22:57:43.911Z,37.80
2019-03-21T23:00:17.979Z,38.10
2019-03-21T23:02:46.465Z,37.80
2019-03-21T23:05:16.101Z,38.00
2019-03-21T23:07:44.601Z,37.70
2019-03-21T23:10:13.691Z,37.50
2019-03-21T23:12:42.802Z,38.40
2019-03-21T23:15:12.797Z,37.70
2019-03-21T23:17:41.285Z,37.80
2019-03-21T23:20:16.413Z,37.60
2019-03-21T23:22:45.282Z,37.50
2019-03-21T23:25:16.440Z,37.90
2019-03-21T23:27:45.150Z,38.10
2019-03-21T23:30:15.684Z,38.30
2019-03-21T23:32:44.126Z,38.40
2019-03-21T23:35:12.612Z,38.20
2019-03-21T23:37:41.223Z,38.40
2019-03-21T23:40:12.013Z,38.30
2019-03-21T23:42:40.536Z,38.40
2019-03-21T23:45:10.214Z,38.50
2019-03-21T23:47:38.720Z,38.60
2019-03-21T23:50:11.503Z,38.90
2019-03-21T23:52:39.959Z,39.10
2019-03-21T23:55:09.130Z,39.10
2019-03-21T23:57:37.625Z,39.30
